createdAt,value
2022-10-12T00:02:37.285Z,8.0
2022-10-12T00:07:43.490Z,9.5
2022-10-12T00:12:49.703Z,8.0
2022-10-12T00:17:55.914Z,9.0
2022-10-12T00:23:02.222Z,8.0
2022-10-12T00:28:08.347Z,8.0
2022-10-12T00:33:14.545Z,8.0
2022-10-12T00:38:20.737Z,10.0
2022-10-12T00:43:26.969Z,7.0
2022-10-12T00:48:33.147Z,7.5
2022-10-12T00:53:38.379Z,7.0
2022-10-12T00:58:44.590Z,5.0
2022-10-12T01:03:50.801Z,7.0
2022-10-12T01:08:56.043Z,8.0
2022-10-12T01:14:02.245Z,10.0
2022-10-12T01:19:08.451Z,8.0
2022-10-12T01:24:14.661Z,9.0
2022-10-12T01:29:20.869Z,8.0
2022-10-12T01:34:27.073Z,10.0
2022-10-12T01:39:33.280Z,9.0
2022-10-12T01:44:42.806Z,10.0
2022-10-12T01:54:51.922Z,8.0
2022-10-12T01:59:58.119Z,10.0
2022-10-12T02:05:04.334Z,11.0
2022-10-12T02:10:10.526Z,11.0
2022-10-12T02:15:16.744Z,11.0
2022-10-12T02:20:21.965Z,10.0
2022-10-12T02:25:28.167Z,10.0
2022-10-12T02:30:34.384Z,10.0
2022-10-12T02:35:40.582Z,9.0
2022-10-12T02:40:46.791Z,8.0
2022-10-12T02:45:53.004Z,7.0
2022-10-12T02:50:59.205Z,9.0
2022-10-12T02:56:05.413Z,7.5
2022-10-12T03:01:10.676Z,7.0
2022-10-12T03:06:16.855Z,6.0
2022-10-12T03:11:22.097Z,7.0
2022-10-12T03:16:28.306Z,8.0
2022-10-12T03:21:34.515Z,8.5
2022-10-12T03:26:40.735Z,6.0
2022-10-12T03:31:46.935Z,8.0
2022-10-12T03:36:53.130Z,6.5
2022-10-12T03:41:59.349Z,6.0
2022-10-12T03:47:05.565Z,7.0
2022-10-12T03:52:11.768Z,8.0
2022-10-12T03:57:17.962Z,4.5
2022-10-12T04:02:24.169Z,5.0
2022-10-12T04:07:30.391Z,7.0
2022-10-12T04:12:36.579Z,5.0
2022-10-12T04:17:42.791Z,7.0
2022-10-12T04:22:49.007Z,9.0
2022-10-12T04:27:55.219Z,5.5
2022-10-12T04:33:01.422Z,7.0
2022-10-12T04:38:07.629Z,5.0
2022-10-12T04:43:13.837Z,7.0
2022-10-12T04:48:20.044Z,5.0
2022-10-12T04:53:26.247Z,5.0
2022-10-12T04:58:31.477Z,6.0
2022-10-12T05:03:41.773Z,5.0
2022-10-12T05:08:43.897Z,6.0
2022-10-12T05:13:49.154Z,6.0
2022-10-12T05:18:55.344Z,7.0
2022-10-12T05:24:01.565Z,7.0
2022-10-12T05:29:07.760Z,6.0
2022-10-12T05:34:13.960Z,6.0
2022-10-12T05:39:20.173Z,8.0
2022-10-12T05:44:26.383Z,7.0
2022-10-12T05:49:32.593Z,9.0
2022-10-12T05:54:38.790Z,6.0
2022-10-12T05:59:45.003Z,8.0
2022-10-12T06:04:51.220Z,7.0
2022-10-12T06:09:57.419Z,6.0
2022-10-12T06:15:03.631Z,9.0
2022-10-12T06:20:09.824Z,6.0
2022-10-12T06:25:16.042Z,7.0
2022-10-12T06:30:22.247Z,10.0
2022-10-12T06:35:28.458Z,7.0
2022-10-12T06:40:34.660Z,8.0
2022-10-12T06:45:40.870Z,11.0
2022-10-12T06:50:47.086Z,11.0
2022-10-12T06:55:53.281Z,8.0
2022-10-12T07:00:58.515Z,11.0
2022-10-12T07:06:04.726Z,11.0
2022-10-12T07:11:10.932Z,14.0
2022-10-12T07:16:16.168Z,14.0
2022-10-12T07:21:22.386Z,13.0
2022-10-12T07:26:28.586Z,12.0
2022-10-12T07:31:34.811Z,12.5
2022-10-12T07:36:57.634Z,15.0
2022-10-12T07:41:47.203Z,17.0
2022-10-12T07:46:53.421Z,15.5
2022-10-12T07:51:59.625Z,16.0
2022-10-12T07:57:05.833Z,18.0
2022-10-12T08:02:12.131Z,16.0
2022-10-12T08:07:18.251Z,17.0
2022-10-12T08:12:24.453Z,17.0
2022-10-12T08:17:30.660Z,17.0
2022-10-12T08:22:36.873Z,19.0
2022-10-12T08:27:43.076Z,17.0
2022-10-12T08:32:49.288Z,18.0
2022-10-12T08:37:55.531Z,21.0
2022-10-12T08:43:01.698Z,20.0
2022-10-12T08:48:07.914Z,21.5
2022-10-12T08:58:20.342Z,22.0
2022-10-12T09:03:26.537Z,24.0
2022-10-12T09:08:31.761Z,25.0
2022-10-12T09:13:37.975Z,22.0
2022-10-12T09:18:44.177Z,23.0
2022-10-12T09:23:50.395Z,21.0
2022-10-12T09:28:56.707Z,22.0
2022-10-12T09:34:02.807Z,20.0
2022-10-12T09:39:08.053Z,21.0
2022-10-12T09:44:14.254Z,23.0
2022-10-12T09:49:20.456Z,23.5
2022-10-12T09:54:26.664Z,22.0
2022-10-12T09:59:32.870Z,21.0
2022-10-12T10:04:39.085Z,21.0
2022-10-12T10:09:45.300Z,21.0
2022-10-12T10:14:51.496Z,21.0
2022-10-12T10:19:57.710Z,23.0
2022-10-12T10:25:03.933Z,20.0
2022-10-12T10:30:28.750Z,21.5
2022-10-12T10:35:16.336Z,20.0
2022-10-12T10:40:22.546Z,21.0
2022-10-12T10:45:28.773Z,19.0
2022-10-12T10:50:34.972Z,18.0
2022-10-12T10:55:41.199Z,19.0
2022-10-12T11:00:48.069Z,20.0
2022-10-12T11:05:53.618Z,17.0
2022-10-12T11:10:59.833Z,15.0
2022-10-12T11:16:06.034Z,16.0
2022-10-12T11:21:12.248Z,15.5
2022-10-12T11:26:17.473Z,15.0
2022-10-12T11:31:23.703Z,11.0
2022-10-12T11:36:29.890Z,13.0
2022-10-12T11:41:36.454Z,14.0
2022-10-12T11:46:42.308Z,15.0
2022-10-12T11:51:48.512Z,13.0
2022-10-12T11:56:54.737Z,13.0
2022-10-12T12:02:00.942Z,12.0
2022-10-12T12:07:07.144Z,13.0
2022-10-12T12:12:13.344Z,12.0
2022-10-12T12:17:19.563Z,13.0
2022-10-12T12:22:25.770Z,13.0
2022-10-12T12:27:31.968Z,14.0
2022-10-12T12:32:38.196Z,13.0
2022-10-12T12:37:44.386Z,12.0
2022-10-12T12:42:50.604Z,14.0
2022-10-12T12:47:56.839Z,15.0
2022-10-12T12:53:03.014Z,13.0
2022-10-12T12:58:09.219Z,12.0
2022-10-12T13:03:15.433Z,15.0
2022-10-12T13:08:21.639Z,13.0
2022-10-12T13:13:26.926Z,13.5
2022-10-12T13:18:47.038Z,11.0
2022-10-12T13:28:44.587Z,10.0
2022-10-12T13:33:49.772Z,9.0
2022-10-12T13:38:55.975Z,10.0
2022-10-12T13:44:02.185Z,9.0
2022-10-12T13:49:08.394Z,12.0
2022-10-12T13:54:14.595Z,10.0
2022-10-12T13:59:20.806Z,10.0
2022-10-12T14:04:27.027Z,11.0
2022-10-12T14:09:33.223Z,11.0
2022-10-12T14:14:39.434Z,10.0
2022-10-12T14:19:45.644Z,9.0
2022-10-12T14:24:51.868Z,11.0
2022-10-12T14:29:58.201Z,10.5
2022-10-12T14:35:04.273Z,10.0
2022-10-12T14:40:10.480Z,9.5
2022-10-12T14:45:16.691Z,9.0
2022-10-12T14:50:22.906Z,8.5
2022-10-12T14:55:29.111Z,8.0
2022-10-12T15:00:35.409Z,8.5
2022-10-12T15:05:41.519Z,6.5
2022-10-12T15:10:47.729Z,5.0
2022-10-12T15:21:00.156Z,7.0
2022-10-12T15:26:05.394Z,6.5
2022-10-12T15:31:17.464Z,7.0
2022-10-12T15:41:23.038Z,10.0
2022-10-12T15:46:28.310Z,8.5
2022-10-12T15:51:34.480Z,8.0
2022-10-12T15:56:39.718Z,7.0
2022-10-12T16:01:45.924Z,8.0
2022-10-12T16:06:52.140Z,6.0
2022-10-12T16:11:58.351Z,7.0
2022-10-12T16:17:04.558Z,8.5
2022-10-12T16:22:10.755Z,6.0
2022-10-12T16:27:17.095Z,8.0
2022-10-12T16:32:23.176Z,7.0
2022-10-12T16:37:29.386Z,7.0
2022-10-12T16:42:35.595Z,7.5
2022-10-12T16:47:42.722Z,6.0
2022-10-12T16:52:48.010Z,7.0
2022-10-12T16:57:54.208Z,6.0
2022-10-12T17:03:00.433Z,7.0
2022-10-12T17:08:08.332Z,8.5
2022-10-12T17:13:12.859Z,7.0
2022-10-12T17:18:19.060Z,7.0
2022-10-12T17:23:25.284Z,9.0
2022-10-12T17:28:31.536Z,7.0
2022-10-12T17:33:37.687Z,9.0
2022-10-12T17:38:43.896Z,7.5
2022-10-12T17:43:49.128Z,9.0
2022-10-12T17:48:55.348Z,11.0
2022-10-12T17:54:00.575Z,7.5
2022-10-12T17:59:06.790Z,7.0
2022-10-12T18:04:13.008Z,8.0
2022-10-12T18:09:19.227Z,7.0
2022-10-12T18:14:25.475Z,8.0
2022-10-12T18:19:31.654Z,6.0
2022-10-12T18:24:37.857Z,8.0
2022-10-12T18:29:44.067Z,8.0
2022-10-12T18:34:50.285Z,8.0
2022-10-12T18:39:56.491Z,10.5
2022-10-12T18:45:02.701Z,11.0
2022-10-12T18:50:08.914Z,9.5
2022-10-12T18:55:15.120Z,9.0
2022-10-12T19:00:21.328Z,8.0
2022-10-12T19:05:27.533Z,10.0
2022-10-12T19:10:33.739Z,10.0
2022-10-12T19:15:39.945Z,11.0
2022-10-12T19:20:46.158Z,11.0
2022-10-12T19:25:51.386Z,11.0
2022-10-12T19:30:57.589Z,14.0
2022-10-12T19:36:03.809Z,12.0
2022-10-12T19:41:09.035Z,11.0
2022-10-12T19:46:15.253Z,13.0
2022-10-12T19:51:20.478Z,10.0
2022-10-12T19:56:26.684Z,12.0
2022-10-12T20:01:32.906Z,12.0
2022-10-12T20:06:39.103Z,11.5
2022-10-12T20:11:45.316Z,11.0
2022-10-12T20:16:51.521Z,10.0
2022-10-12T20:21:57.720Z,11.5
2022-10-12T20:27:03.938Z,11.0
2022-10-12T20:32:10.152Z,13.0
2022-10-12T20:37:16.354Z,11.0
2022-10-12T20:42:22.618Z,11.0
2022-10-12T20:47:28.769Z,13.0
2022-10-12T20:52:34.975Z,13.0
2022-10-12T20:57:41.185Z,13.0
2022-10-12T21:02:47.392Z,12.0
2022-10-12T21:07:53.604Z,15.0
2022-10-12T21:12:59.807Z,13.0
2022-10-12T21:18:06.013Z,14.0
2022-10-12T21:23:12.236Z,12.0
2022-10-12T21:28:18.491Z,14.0
2022-10-12T21:33:24.650Z,15.0
2022-10-12T21:38:29.873Z,11.5
2022-10-12T21:43:36.090Z,15.0
2022-10-12T21:48:41.314Z,13.0
2022-10-12T21:53:47.523Z,14.0
2022-10-12T21:58:53.726Z,15.0
2022-10-12T22:03:59.944Z,15.0
2022-10-12T22:09:06.154Z,13.0
2022-10-12T22:14:12.360Z,13.0
2022-10-12T22:19:18.583Z,13.0
2022-10-12T22:24:24.809Z,14.0
2022-10-12T22:29:30.981Z,15.0
2022-10-12T22:34:37.192Z,13.0
2022-10-12T22:39:43.403Z,14.0
2022-10-12T22:44:49.606Z,13.0
2022-10-12T22:49:55.816Z,16.0
2022-10-12T22:55:02.038Z,12.0
2022-10-12T23:00:08.245Z,12.5
2022-10-12T23:05:14.470Z,12.0
2022-10-12T23:10:20.648Z,14.0
2022-10-12T23:15:26.875Z,12.0
2022-10-12T23:20:33.069Z,15.0
2022-10-12T23:25:39.265Z,14.0
2022-10-12T23:30:45.481Z,13.0
2022-10-12T23:35:50.727Z,16.0
2022-10-12T23:40:56.937Z,16.0
2022-10-12T23:46:02.171Z,15.0
2022-10-12T23:51:08.363Z,16.0
2022-10-12T23:56:14.571Z,16.0
